sensor_id;sensor_type;location;lat;lon;timestamp;temperature;humidity
30764;DHT22;17497;51.476;7.770;2024-03-23T08:19:24;6.30;99.90
30764;DHT22;17497;51.476;7.770;2024-03-23T08:21:51;6.40;99.90
30764;DHT22;17497;51.476;7.770;2024-03-23T08:24:34;6.40;99.90
30764;DHT22;17497;51.476;7.770;2024-03-23T09:20:21;7.40;99.90
30764;DHT22;17497;51.476;7.770;2024-03-23T11:38:59;8.80;95.50
30764;DHT22;17497;51.476;7.770;2024-03-23T11:41:44;8.40;99.90
30764;DHT22;17497;51.476;7.770;2024-03-23T11:44:20;6.70;99.90
30764;DHT22;17497;51.476;7.770;2024-03-23T11:46:46;5.20;99.90
30764;DHT22;17497;51.476;7.770;2024-03-23T11:49:22;4.40;99.90
30764;DHT22;17497;51.476;7.770;2024-03-23T11:51:51;4.10;99.90
30764;DHT22;17497;51.476;7.770;2024-03-23T11:54:26;4.10;99.90
30764;DHT22;17497;51.476;7.770;2024-03-23T11:56:56;4.30;99.90
30764;DHT22;17497;51.476;7.770;2024-03-23T11:59:32;4.60;99.90
30764;DHT22;17497;51.476;7.770;2024-03-23T12:02:11;4.60;99.90
30764;DHT22;17497;51.476;7.770;2024-03-23T12:04:45;5.00;99.90
30764;DHT22;17497;51.476;7.770;2024-03-23T12:07:11;5.70;99.90
30764;DHT22;17497;51.476;7.770;2024-03-23T12:09:38;6.70;99.90
30764;DHT22;17497;51.476;7.770;2024-03-23T12:12:11;7.80;99.90
30764;DHT22;17497;51.476;7.770;2024-03-23T12:14:43;8.40;99.90
30764;DHT22;17497;51.476;7.770;2024-03-23T12:17:10;9.00;99.90
30764;DHT22;17497;51.476;7.770;2024-03-23T12:19:38;9.80;99.90
30764;DHT22;17497;51.476;7.770;2024-03-23T12:22:05;9.90;99.90
30764;DHT22;17497;51.476;7.770;2024-03-23T12:27:12;10.30;99.90
30764;DHT22;17497;51.476;7.770;2024-03-23T12:29:38;9.80;99.90
30764;DHT22;17497;51.476;7.770;2024-03-23T12:32:04;9.70;99.90
30764;DHT22;17497;51.476;7.770;2024-03-23T12:34:31;10.20;99.90
30764;DHT22;17497;51.476;7.770;2024-03-23T12:36:56;11.30;87.60
30764;DHT22;17497;51.476;7.770;2024-03-23T12:39:22;11.30;94.70
30764;DHT22;17497;51.476;7.770;2024-03-23T12:41:50;11.10;75.70
30764;DHT22;17497;51.476;7.770;2024-03-23T12:44:18;10.90;28.60
30764;DHT22;17497;51.476;7.770;2024-03-23T12:46:44;10.30;51.20
30764;DHT22;17497;51.476;7.770;2024-03-23T12:49:12;9.60;61.50
30764;DHT22;17497;51.476;7.770;2024-03-23T12:51:38;9.40;60.50
30764;DHT22;17497;51.476;7.770;2024-03-23T12:54:03;9.70;67.60
30764;DHT22;17497;51.476;7.770;2024-03-23T12:56:29;10.20;38.70
30764;DHT22;17497;51.476;7.770;2024-03-23T12:59:01;10.70;26.80
30764;DHT22;17497;51.476;7.770;2024-03-23T13:01:27;10.60;25.90
30764;DHT22;17497;51.476;7.770;2024-03-23T13:03:52;10.00;53.30
30764;DHT22;17497;51.476;7.770;2024-03-23T13:06:18;9.10;55.90
30764;DHT22;17497;51.476;7.770;2024-03-23T13:08:45;8.70;92.70
30764;DHT22;17497;51.476;7.770;2024-03-23T13:11:11;8.30;99.90
30764;DHT22;17497;51.476;7.770;2024-03-23T13:13:37;8.00;99.90
30764;DHT22;17497;51.476;7.770;2024-03-23T13:16:03;8.10;99.90
30764;DHT22;17497;51.476;7.770;2024-03-23T13:18:30;7.70;99.90
30764;DHT22;17497;51.476;7.770;2024-03-23T13:20:55;7.50;99.90
30764;DHT22;17497;51.476;7.770;2024-03-23T13:23:21;7.70;99.90
30764;DHT22;17497;51.476;7.770;2024-03-23T13:25:51;8.40;99.90
30764;DHT22;17497;51.476;7.770;2024-03-23T13:28:18;9.60;74.30
30764;DHT22;17497;51.476;7.770;2024-03-23T13:33:16;10.00;37.60
30764;DHT22;17497;51.476;7.770;2024-03-23T13:35:48;10.30;38.00
30764;DHT22;17497;51.476;7.770;2024-03-23T13:38:14;10.40;47.00
30764;DHT22;17497;51.476;7.770;2024-03-23T13:40:48;9.80;44.90
30764;DHT22;17497;51.476;7.770;2024-03-23T13:43:14;9.80;47.90
30764;DHT22;17497;51.476;7.770;2024-03-23T13:45:40;10.00;66.10
30764;DHT22;17497;51.476;7.770;2024-03-23T13:48:06;10.20;47.60
30764;DHT22;17497;51.476;7.770;2024-03-23T13:50:31;10.60;44.50
30764;DHT22;17497;51.476;7.770;2024-03-23T13:52:57;10.20;54.00
30764;DHT22;17497;51.476;7.770;2024-03-23T13:55:23;10.50;78.90
30764;DHT22;17497;51.476;7.770;2024-03-23T13:57:48;10.10;59.80
30764;DHT22;17497;51.476;7.770;2024-03-23T14:00:16;9.90;70.40
30764;DHT22;17497;51.476;7.770;2024-03-23T14:02:44;8.90;95.70
30764;DHT22;17497;51.476;7.770;2024-03-23T14:05:10;8.10;98.40
30764;DHT22;17497;51.476;7.770;2024-03-23T14:07:36;7.90;97.70
30764;DHT22;17497;51.476;7.770;2024-03-23T14:10:05;7.30;99.90
30764;DHT22;17497;51.476;7.770;2024-03-23T14:12:37;6.40;99.90
30764;DHT22;17497;51.476;7.770;2024-03-23T14:15:05;5.70;99.90
30764;DHT22;17497;51.476;7.770;2024-03-23T14:17:31;5.50;99.90
30764;DHT22;17497;51.476;7.770;2024-03-23T14:19:56;6.20;99.90
30764;DHT22;17497;51.476;7.770;2024-03-23T14:22:27;6.60;99.90
30764;DHT22;17497;51.476;7.770;2024-03-23T14:24:52;7.50;99.90
30764;DHT22;17497;51.476;7.770;2024-03-23T14:27:18;8.00;99.90
30764;DHT22;17497;51.476;7.770;2024-03-23T14:29:47;8.20;99.90
30764;DHT22;17497;51.476;7.770;2024-03-23T14:32:13;8.30;99.90
30764;DHT22;17497;51.476;7.770;2024-03-23T14:34:39;8.00;99.90
30764;DHT22;17497;51.476;7.770;2024-03-23T14:37:04;7.90;99.90
30764;DHT22;17497;51.476;7.770;2024-03-23T14:39:32;7.60;99.90
30764;DHT22;17497;51.476;7.770;2024-03-23T14:42:00;7.40;99.90
30764;DHT22;17497;51.476;7.770;2024-03-23T14:44:27;7.40;99.90
30764;DHT22;17497;51.476;7.770;2024-03-23T14:46:53;7.40;99.90
30764;DHT22;17497;51.476;7.770;2024-03-23T14:49:19;7.60;99.90
30764;DHT22;17497;51.476;7.770;2024-03-23T14:51:45;7.90;99.90
30764;DHT22;17497;51.476;7.770;2024-03-23T14:54:12;8.10;99.90
30764;DHT22;17497;51.476;7.770;2024-03-23T14:56:38;7.90;99.90
30764;DHT22;17497;51.476;7.770;2024-03-23T14:59:04;8.20;99.90
30764;DHT22;17497;51.476;7.770;2024-03-23T15:01:31;8.70;99.90
30764;DHT22;17497;51.476;7.770;2024-03-23T15:03:57;9.20;96.10
30764;DHT22;17497;51.476;7.770;2024-03-23T15:06:23;9.70;99.90
30764;DHT22;17497;51.476;7.770;2024-03-23T15:08:48;10.20;87.40
30764;DHT22;17497;51.476;7.770;2024-03-23T15:11:15;10.00;79.60
30764;DHT22;17497;51.476;7.770;2024-03-23T15:13:43;9.40;77.10
30764;DHT22;17497;51.476;7.770;2024-03-23T15:16:09;8.90;71.40
30764;DHT22;17497;51.476;7.770;2024-03-23T15:18:35;8.50;79.40
30764;DHT22;17497;51.476;7.770;2024-03-23T15:21:02;8.90;70.10
30764;DHT22;17497;51.476;7.770;2024-03-23T15:23:29;8.70;72.50
30764;DHT22;17497;51.476;7.770;2024-03-23T15:28:23;9.10;75.10
30764;DHT22;17497;51.476;7.770;2024-03-23T15:30:49;9.80;70.90
30764;DHT22;17497;51.476;7.770;2024-03-23T15:33:16;10.80;80.50
30764;DHT22;17497;51.476;7.770;2024-03-23T15:35:42;10.20;74.40
30764;DHT22;17497;51.476;7.770;2024-03-23T15:38:07;10.80;70.50
30764;DHT22;17497;51.476;7.770;2024-03-23T15:40:35;10.20;73.90
30764;DHT22;17497;51.476;7.770;2024-03-23T15:43:01;9.00;49.70
30764;DHT22;17497;51.476;7.770;2024-03-23T15:45:26;8.60;73.10
30764;DHT22;17497;51.476;7.770;2024-03-23T15:47:52;8.60;74.20
30764;DHT22;17497;51.476;7.770;2024-03-23T15:50:18;8.60;71.10
30764;DHT22;17497;51.476;7.770;2024-03-23T15:52:44;8.80;62.90
30764;DHT22;17497;51.476;7.770;2024-03-23T15:55:10;8.60;61.60
30764;DHT22;17497;51.476;7.770;2024-03-23T15:57:36;8.40;71.70
30764;DHT22;17497;51.476;7.770;2024-03-23T16:00:02;8.30;68.80
30764;DHT22;17497;51.476;7.770;2024-03-23T16:02:28;8.20;70.80
30764;DHT22;17497;51.476;7.770;2024-03-23T16:04:54;8.10;75.90
30764;DHT22;17497;51.476;7.770;2024-03-23T16:07:20;7.90;87.60
30764;DHT22;17497;51.476;7.770;2024-03-23T16:09:46;7.80;89.80
30764;DHT22;17497;51.476;7.770;2024-03-23T16:12:12;7.80;93.80
30764;DHT22;17497;51.476;7.770;2024-03-23T16:14:38;7.80;98.50
30764;DHT22;17497;51.476;7.770;2024-03-23T16:17:03;7.90;94.30
30764;DHT22;17497;51.476;7.770;2024-03-23T16:19:29;8.40;96.30
30764;DHT22;17497;51.476;7.770;2024-03-23T16:21:55;8.70;90.60
30764;DHT22;17497;51.476;7.770;2024-03-23T16:24:21;9.30;86.40
30764;DHT22;17497;51.476;7.770;2024-03-23T16:26:47;9.50;79.60
30764;DHT22;17497;51.476;7.770;2024-03-23T16:29:13;9.90;76.70
30764;DHT22;17497;51.476;7.770;2024-03-23T16:31:38;9.80;78.60
30764;DHT22;17497;51.476;7.770;2024-03-23T16:34:04;8.80;79.00
30764;DHT22;17497;51.476;7.770;2024-03-23T16:36:30;8.70;80.90
30764;DHT22;17497;51.476;7.770;2024-03-23T16:38:55;8.30;80.40
30764;DHT22;17497;51.476;7.770;2024-03-23T16:41:21;8.10;92.80
30764;DHT22;17497;51.476;7.770;2024-03-23T16:43:47;7.80;94.10
30764;DHT22;17497;51.476;7.770;2024-03-23T16:46:13;7.90;92.60
30764;DHT22;17497;51.476;7.770;2024-03-23T16:48:44;7.90;86.60
30764;DHT22;17497;51.476;7.770;2024-03-23T16:51:10;8.00;90.10
30764;DHT22;17497;51.476;7.770;2024-03-23T16:53:36;7.80;88.20
30764;DHT22;17497;51.476;7.770;2024-03-23T16:56:05;7.70;86.40
30764;DHT22;17497;51.476;7.770;2024-03-23T16:58:33;7.80;90.90
30764;DHT22;17497;51.476;7.770;2024-03-23T17:01:17;7.60;90.00
30764;DHT22;17497;51.476;7.770;2024-03-23T17:03:48;7.50;95.90
30764;DHT22;17497;51.476;7.770;2024-03-23T17:06:15;7.40;97.20
30764;DHT22;17497;51.476;7.770;2024-03-23T17:08:42;7.20;97.70
30764;DHT22;17497;51.476;7.770;2024-03-23T17:11:09;7.20;98.00
30764;DHT22;17497;51.476;7.770;2024-03-23T17:13:35;7.20;99.90
30764;DHT22;17497;51.476;7.770;2024-03-23T17:16:01;7.10;99.90
30764;DHT22;17497;51.476;7.770;2024-03-23T17:18:27;7.10;99.90
30764;DHT22;17497;51.476;7.770;2024-03-23T17:20:53;7.00;99.90
30764;DHT22;17497;51.476;7.770;2024-03-23T17:23:25;6.90;99.90
30764;DHT22;17497;51.476;7.770;2024-03-23T17:25:51;6.80;99.90
30764;DHT22;17497;51.476;7.770;2024-03-23T17:28:22;6.70;99.90
30764;DHT22;17497;51.476;7.770;2024-03-23T17:30:48;6.60;99.90
30764;DHT22;17497;51.476;7.770;2024-03-23T17:33:14;6.60;99.90
30764;DHT22;17497;51.476;7.770;2024-03-23T17:35:40;6.50;99.90
30764;DHT22;17497;51.476;7.770;2024-03-23T17:38:06;6.40;99.90
30764;DHT22;17497;51.476;7.770;2024-03-23T17:40:32;6.30;99.90
30764;DHT22;17497;51.476;7.770;2024-03-23T17:42:57;6.40;99.90
30764;DHT22;17497;51.476;7.770;2024-03-23T17:45:23;6.30;99.90
30764;DHT22;17497;51.476;7.770;2024-03-23T17:47:49;6.30;99.90
30764;DHT22;17497;51.476;7.770;2024-03-23T17:50:16;6.20;99.90
30764;DHT22;17497;51.476;7.770;2024-03-23T17:52:42;6.10;99.90
30764;DHT22;17497;51.476;7.770;2024-03-23T17:55:08;6.10;99.90
30764;DHT22;17497;51.476;7.770;2024-03-23T17:57:34;6.00;99.90
30764;DHT22;17497;51.476;7.770;2024-03-23T18:00:00;6.00;99.90
30764;DHT22;17497;51.476;7.770;2024-03-23T18:02:59;5.90;99.90
30764;DHT22;17497;51.476;7.770;2024-03-23T18:05:18;5.90;99.90
30764;DHT22;17497;51.476;7.770;2024-03-23T18:07:46;6.00;99.90
30764;DHT22;17497;51.476;7.770;2024-03-23T18:10:12;6.00;99.90
30764;DHT22;17497;51.476;7.770;2024-03-23T18:12:38;6.00;99.90
30764;DHT22;17497;51.476;7.770;2024-03-23T18:15:03;6.00;99.90
30764;DHT22;17497;51.476;7.770;2024-03-23T18:17:30;6.10;99.90
30764;DHT22;17497;51.476;7.770;2024-03-23T18:19:59;6.10;99.90
30764;DHT22;17497;51.476;7.770;2024-03-23T18:22:33;6.10;99.90
30764;DHT22;17497;51.476;7.770;2024-03-23T18:24:59;6.10;99.90
30764;DHT22;17497;51.476;7.770;2024-03-23T18:27:26;6.00;99.90
30764;DHT22;17497;51.476;7.770;2024-03-23T18:29:52;5.80;99.90
30764;DHT22;17497;51.476;7.770;2024-03-23T18:32:18;5.60;99.90
30764;DHT22;17497;51.476;7.770;2024-03-23T18:34:44;5.60;99.90
30764;DHT22;17497;51.476;7.770;2024-03-23T18:37:10;5.40;99.90
30764;DHT22;17497;51.476;7.770;2024-03-23T18:39:38;5.30;99.90
30764;DHT22;17497;51.476;7.770;2024-03-23T18:42:06;5.30;99.90
30764;DHT22;17497;51.476;7.770;2024-03-23T18:44:34;5.30;99.90
30764;DHT22;17497;51.476;7.770;2024-03-23T18:47:00;5.30;99.90
30764;DHT22;17497;51.476;7.770;2024-03-23T18:49:26;5.30;99.90
30764;DHT22;17497;51.476;7.770;2024-03-23T18:51:57;5.30;99.90
30764;DHT22;17497;51.476;7.770;2024-03-23T18:54:23;5.30;99.90
30764;DHT22;17497;51.476;7.770;2024-03-23T18:56:58;5.20;99.90
30764;DHT22;17497;51.476;7.770;2024-03-23T18:59:23;5.20;99.90
30764;DHT22;17497;51.476;7.770;2024-03-23T19:01:49;5.20;99.90
30764;DHT22;17497;51.476;7.770;2024-03-23T19:04:15;5.10;99.90
30764;DHT22;17497;51.476;7.770;2024-03-23T19:06:44;5.10;99.90
30764;DHT22;17497;51.476;7.770;2024-03-23T19:09:12;5.10;99.90
30764;DHT22;17497;51.476;7.770;2024-03-23T19:11:40;5.00;99.90
30764;DHT22;17497;51.476;7.770;2024-03-23T19:14:06;4.90;99.90
30764;DHT22;17497;51.476;7.770;2024-03-23T19:16:32;4.90;99.90
30764;DHT22;17497;51.476;7.770;2024-03-23T19:18:58;4.90;99.90
30764;DHT22;17497;51.476;7.770;2024-03-23T19:21:25;4.90;99.90
30764;DHT22;17497;51.476;7.770;2024-03-23T19:23:52;4.90;99.90
30764;DHT22;17497;51.476;7.770;2024-03-23T19:26:18;4.90;99.90
30764;DHT22;17497;51.476;7.770;2024-03-23T19:28:44;4.80;99.90
30764;DHT22;17497;51.476;7.770;2024-03-23T19:31:12;4.70;99.90
30764;DHT22;17497;51.476;7.770;2024-03-23T19:33:38;4.70;99.90
30764;DHT22;17497;51.476;7.770;2024-03-23T19:36:04;4.70;99.90
30764;DHT22;17497;51.476;7.770;2024-03-23T19:38:29;4.80;99.90
30764;DHT22;17497;51.476;7.770;2024-03-23T19:40:56;4.70;99.90
30764;DHT22;17497;51.476;7.770;2024-03-23T19:43:22;4.70;99.90
30764;DHT22;17497;51.476;7.770;2024-03-23T19:46:01;4.70;99.90
30764;DHT22;17497;51.476;7.770;2024-03-23T19:48:30;4.60;99.90
30764;DHT22;17497;51.476;7.770;2024-03-23T19:50:59;4.60;99.90
30764;DHT22;17497;51.476;7.770;2024-03-23T19:53:25;4.60;99.90
30764;DHT22;17497;51.476;7.770;2024-03-23T19:55:56;4.60;99.90
30764;DHT22;17497;51.476;7.770;2024-03-23T19:58:26;4.60;99.90
30764;DHT22;17497;51.476;7.770;2024-03-23T20:00:51;4.50;99.90
30764;DHT22;17497;51.476;7.770;2024-03-23T20:03:17;4.50;99.90
30764;DHT22;17497;51.476;7.770;2024-03-23T20:05:43;4.40;99.90
30764;DHT22;17497;51.476;7.770;2024-03-23T20:08:14;4.40;99.90
30764;DHT22;17497;51.476;7.770;2024-03-23T20:10:45;4.30;99.90
30764;DHT22;17497;51.476;7.770;2024-03-23T20:13:12;4.20;99.90
30764;DHT22;17497;51.476;7.770;2024-03-23T20:15:38;4.20;99.90
30764;DHT22;17497;51.476;7.770;2024-03-23T20:18:03;4.00;99.90
30764;DHT22;17497;51.476;7.770;2024-03-23T20:20:30;4.00;99.90
30764;DHT22;17497;51.476;7.770;2024-03-23T20:23:01;3.90;99.90
30764;DHT22;17497;51.476;7.770;2024-03-23T20:25:27;3.90;99.90
30764;DHT22;17497;51.476;7.770;2024-03-23T20:27:53;3.90;99.90
30764;DHT22;17497;51.476;7.770;2024-03-23T20:30:22;4.00;99.90
30764;DHT22;17497;51.476;7.770;2024-03-23T20:32:51;4.10;99.90
30764;DHT22;17497;51.476;7.770;2024-03-23T20:35:16;4.10;99.90
30764;DHT22;17497;51.476;7.770;2024-03-23T20:37:42;4.20;99.90
30764;DHT22;17497;51.476;7.770;2024-03-23T20:40:08;4.20;99.90
30764;DHT22;17497;51.476;7.770;2024-03-23T20:42:34;4.20;99.90
30764;DHT22;17497;51.476;7.770;2024-03-23T20:45:00;4.30;99.90
30764;DHT22;17497;51.476;7.770;2024-03-23T20:47:29;4.30;99.90
30764;DHT22;17497;51.476;7.770;2024-03-23T20:49:58;4.30;99.90
30764;DHT22;17497;51.476;7.770;2024-03-23T20:52:29;4.30;99.90
30764;DHT22;17497;51.476;7.770;2024-03-23T20:54:55;4.40;99.90
30764;DHT22;17497;51.476;7.770;2024-03-23T20:57:24;4.50;99.90
30764;DHT22;17497;51.476;7.770;2024-03-23T21:00:00;4.50;99.90
30764;DHT22;17497;51.476;7.770;2024-03-23T21:02:26;4.40;99.90
30764;DHT22;17497;51.476;7.770;2024-03-23T21:04:54;4.40;99.90
30764;DHT22;17497;51.476;7.770;2024-03-23T21:07:20;4.20;99.90
30764;DHT22;17497;51.476;7.770;2024-03-23T21:09:45;4.20;99.90
30764;DHT22;17497;51.476;7.770;2024-03-23T21:12:14;4.10;99.90
30764;DHT22;17497;51.476;7.770;2024-03-23T21:14:43;4.10;99.90
30764;DHT22;17497;51.476;7.770;2024-03-23T21:17:11;4.00;99.90
30764;DHT22;17497;51.476;7.770;2024-03-23T21:19:37;4.00;99.90
30764;DHT22;17497;51.476;7.770;2024-03-23T21:22:14;4.00;99.90
30764;DHT22;17497;51.476;7.770;2024-03-23T21:24:42;4.00;99.90
30764;DHT22;17497;51.476;7.770;2024-03-23T21:27:09;4.10;99.90
30764;DHT22;17497;51.476;7.770;2024-03-23T21:29:35;4.10;99.90
30764;DHT22;17497;51.476;7.770;2024-03-23T21:32:01;4.00;99.90
30764;DHT22;17497;51.476;7.770;2024-03-23T21:34:27;4.00;99.90
30764;DHT22;17497;51.476;7.770;2024-03-23T21:36:52;4.00;99.90
30764;DHT22;17497;51.476;7.770;2024-03-23T21:39:19;4.10;99.90
30764;DHT22;17497;51.476;7.770;2024-03-23T21:41:45;4.10;99.90
30764;DHT22;17497;51.476;7.770;2024-03-23T21:44:11;4.10;99.90
30764;DHT22;17497;51.476;7.770;2024-03-23T21:46:37;4.00;99.90
30764;DHT22;17497;51.476;7.770;2024-03-23T21:49:03;4.10;99.90
30764;DHT22;17497;51.476;7.770;2024-03-23T21:51:29;4.10;99.90
30764;DHT22;17497;51.476;7.770;2024-03-23T21:53:54;4.10;99.90
30764;DHT22;17497;51.476;7.770;2024-03-23T21:56:23;4.10;99.90
30764;DHT22;17497;51.476;7.770;2024-03-23T21:58:49;4.10;99.90
30764;DHT22;17497;51.476;7.770;2024-03-23T22:01:15;4.20;99.90
30764;DHT22;17497;51.476;7.770;2024-03-23T22:03:45;4.20;99.90
30764;DHT22;17497;51.476;7.770;2024-03-23T22:06:11;4.20;99.90
30764;DHT22;17497;51.476;7.770;2024-03-23T22:08:36;4.20;99.90
30764;DHT22;17497;51.476;7.770;2024-03-23T22:11:02;4.10;99.90
30764;DHT22;17497;51.476;7.770;2024-03-23T22:13:28;4.10;99.90
30764;DHT22;17497;51.476;7.770;2024-03-23T22:15:57;4.10;99.90
30764;DHT22;17497;51.476;7.770;2024-03-23T22:18:23;4.10;99.90
30764;DHT22;17497;51.476;7.770;2024-03-23T22:20:58;4.10;99.90
30764;DHT22;17497;51.476;7.770;2024-03-23T22:23:24;4.10;99.90
30764;DHT22;17497;51.476;7.770;2024-03-23T22:25:50;4.20;99.90
30764;DHT22;17497;51.476;7.770;2024-03-23T22:28:16;4.10;99.90
30764;DHT22;17497;51.476;7.770;2024-03-23T22:31:02;4.20;99.90
30764;DHT22;17497;51.476;7.770;2024-03-23T22:33:32;4.10;99.90
30764;DHT22;17497;51.476;7.770;2024-03-23T22:35:58;4.10;99.90
30764;DHT22;17497;51.476;7.770;2024-03-23T22:38:25;4.00;99.90
30764;DHT22;17497;51.476;7.770;2024-03-23T22:43:23;4.00;99.90
30764;DHT22;17497;51.476;7.770;2024-03-23T22:45:52;4.00;99.90
30764;DHT22;17497;51.476;7.770;2024-03-23T22:48:20;4.00;99.90
30764;DHT22;17497;51.476;7.770;2024-03-23T22:50:46;4.00;99.90
30764;DHT22;17497;51.476;7.770;2024-03-23T22:53:11;4.00;99.90
30764;DHT22;17497;51.476;7.770;2024-03-23T22:55:37;4.10;99.90
30764;DHT22;17497;51.476;7.770;2024-03-23T22:58:03;4.00;99.90
30764;DHT22;17497;51.476;7.770;2024-03-23T23:00:29;4.10;99.90
30764;DHT22;17497;51.476;7.770;2024-03-23T23:02:55;4.00;99.90
30764;DHT22;17497;51.476;7.770;2024-03-23T23:05:21;4.00;99.90
30764;DHT22;17497;51.476;7.770;2024-03-23T23:07:47;4.00;99.90
30764;DHT22;17497;51.476;7.770;2024-03-23T23:10:13;4.00;99.90
30764;DHT22;17497;51.476;7.770;2024-03-23T23:12:38;4.00;99.90
30764;DHT22;17497;51.476;7.770;2024-03-23T23:15:04;4.00;99.90
30764;DHT22;17497;51.476;7.770;2024-03-23T23:17:30;4.00;99.90
30764;DHT22;17497;51.476;7.770;2024-03-23T23:19:56;4.00;99.90
30764;DHT22;17497;51.476;7.770;2024-03-23T23:22:21;4.00;99.90
30764;DHT22;17497;51.476;7.770;2024-03-23T23:24:47;4.00;99.90
30764;DHT22;17497;51.476;7.770;2024-03-23T23:27:13;4.00;99.90
30764;DHT22;17497;51.476;7.770;2024-03-23T23:29:38;4.00;99.90
30764;DHT22;17497;51.476;7.770;2024-03-23T23:32:04;4.00;99.90
30764;DHT22;17497;51.476;7.770;2024-03-23T23:34:30;4.10;99.90
30764;DHT22;17497;51.476;7.770;2024-03-23T23:36:56;4.10;99.90
30764;DHT22;17497;51.476;7.770;2024-03-23T23:39:21;4.20;99.90
30764;DHT22;17497;51.476;7.770;2024-03-23T23:41:47;4.20;99.90
30764;DHT22;17497;51.476;7.770;2024-03-23T23:44:13;4.20;99.90
30764;DHT22;17497;51.476;7.770;2024-03-23T23:46:38;4.20;99.90
30764;DHT22;17497;51.476;7.770;2024-03-23T23:49:04;4.20;99.90
30764;DHT22;17497;51.476;7.770;2024-03-23T23:51:30;4.20;99.90
30764;DHT22;17497;51.476;7.770;2024-03-23T23:53:56;4.20;99.90
30764;DHT22;17497;51.476;7.770;2024-03-23T23:56:22;4.20;99.90
30764;DHT22;17497;51.476;7.770;2024-03-23T23:58:47;4.30;99.90
